sensor_id;sensor_type;location;lat;lon;timestamp;P1;durP1;ratioP1;P2;durP2;ratioP2
5349;SDS011;2697;42.144;24.794;2022-12-29T00:01:58;27.40;;;11.47;;
5349;SDS011;2697;42.144;24.794;2022-12-29T00:04:24;26.37;;;12.17;;
5349;SDS011;2697;42.144;24.794;2022-12-29T00:06:49;26.30;;;11.23;;
5349;SDS011;2697;42.144;24.794;2022-12-29T00:09:15;27.47;;;11.77;;
5349;SDS011;2697;42.144;24.794;2022-12-29T00:11:41;24.47;;;11.00;;
5349;SDS011;2697;42.144;24.794;2022-12-29T00:14:10;26.27;;;11.10;;
5349;SDS011;2697;42.144;24.794;2022-12-29T00:16:55;37.33;;;10.47;;
5349;SDS011;2697;42.144;24.794;2022-12-29T00:19:21;29.60;;;11.63;;
5349;SDS011;2697;42.144;24.794;2022-12-29T00:22:05;26.83;;;13.30;;
5349;SDS011;2697;42.144;24.794;2022-12-29T00:24:49;31.47;;;10.70;;
5349;SDS011;2697;42.144;24.794;2022-12-29T00:27:30;30.10;;;12.57;;
5349;SDS011;2697;42.144;24.794;2022-12-29T00:30:16;32.40;;;12.37;;
5349;SDS011;2697;42.144;24.794;2022-12-29T00:38:38;21.43;;;11.80;;
5349;SDS011;2697;42.144;24.794;2022-12-29T00:41:25;31.27;;;11.80;;
5349;SDS011;2697;42.144;24.794;2022-12-29T00:44:10;27.77;;;12.47;;
5349;SDS011;2697;42.144;24.794;2022-12-29T00:46:37;27.20;;;11.67;;
5349;SDS011;2697;42.144;24.794;2022-12-29T00:49:05;24.93;;;11.50;;
5349;SDS011;2697;42.144;24.794;2022-12-29T00:51:49;36.77;;;12.70;;
5349;SDS011;2697;42.144;24.794;2022-12-29T00:54:15;35.33;;;13.03;;
5349;SDS011;2697;42.144;24.794;2022-12-29T00:56:41;35.90;;;12.00;;
5349;SDS011;2697;42.144;24.794;2022-12-29T00:59:07;27.30;;;11.57;;
5349;SDS011;2697;42.144;24.794;2022-12-29T01:01:34;33.43;;;13.23;;
5349;SDS011;2697;42.144;24.794;2022-12-29T01:04:01;28.03;;;12.83;;
5349;SDS011;2697;42.144;24.794;2022-12-29T01:06:26;28.13;;;12.70;;
5349;SDS011;2697;42.144;24.794;2022-12-29T01:08:52;28.47;;;13.00;;
5349;SDS011;2697;42.144;24.794;2022-12-29T01:11:36;42.43;;;12.23;;
5349;SDS011;2697;42.144;24.794;2022-12-29T01:14:06;36.27;;;12.03;;
5349;SDS011;2697;42.144;24.794;2022-12-29T01:16:31;53.90;;;15.27;;
5349;SDS011;2697;42.144;24.794;2022-12-29T01:18:57;40.23;;;13.10;;
5349;SDS011;2697;42.144;24.794;2022-12-29T01:21:23;33.03;;;13.27;;
5349;SDS011;2697;42.144;24.794;2022-12-29T01:23:49;30.77;;;12.47;;
5349;SDS011;2697;42.144;24.794;2022-12-29T01:26:14;24.00;;;11.83;;
5349;SDS011;2697;42.144;24.794;2022-12-29T01:28:41;38.83;;;13.83;;
5349;SDS011;2697;42.144;24.794;2022-12-29T01:31:07;31.43;;;12.43;;
5349;SDS011;2697;42.144;24.794;2022-12-29T01:33:34;28.47;;;13.10;;
5349;SDS011;2697;42.144;24.794;2022-12-29T01:36:03;33.07;;;13.30;;
5349;SDS011;2697;42.144;24.794;2022-12-29T01:38:30;24.50;;;12.10;;
5349;SDS011;2697;42.144;24.794;2022-12-29T01:40:56;31.67;;;13.63;;
5349;SDS011;2697;42.144;24.794;2022-12-29T01:43:21;31.67;;;15.00;;
5349;SDS011;2697;42.144;24.794;2022-12-29T01:46:25;26.20;;;12.17;;
5349;SDS011;2697;42.144;24.794;2022-12-29T01:48:52;24.53;;;13.00;;
5349;SDS011;2697;42.144;24.794;2022-12-29T01:51:31;26.77;;;12.80;;
5349;SDS011;2697;42.144;24.794;2022-12-29T01:53:59;20.70;;;12.60;;
5349;SDS011;2697;42.144;24.794;2022-12-29T01:56:29;32.77;;;14.33;;
5349;SDS011;2697;42.144;24.794;2022-12-29T01:58:58;25.40;;;14.33;;
5349;SDS011;2697;42.144;24.794;2022-12-29T02:01:27;43.63;;;12.77;;
5349;SDS011;2697;42.144;24.794;2022-12-29T02:03:52;29.00;;;13.27;;
5349;SDS011;2697;42.144;24.794;2022-12-29T02:06:22;23.70;;;11.17;;
5349;SDS011;2697;42.144;24.794;2022-12-29T02:08:52;27.17;;;12.43;;
5349;SDS011;2697;42.144;24.794;2022-12-29T02:11:20;26.80;;;12.60;;
5349;SDS011;2697;42.144;24.794;2022-12-29T02:13:48;40.50;;;16.53;;
5349;SDS011;2697;42.144;24.794;2022-12-29T02:37:27;30.13;;;11.80;;
5349;SDS011;2697;42.144;24.794;2022-12-29T02:45:44;26.57;;;10.40;;
5349;SDS011;2697;42.144;24.794;2022-12-29T02:48:37;33.60;;;12.53;;
5349;SDS011;2697;42.144;24.794;2022-12-29T02:51:06;24.67;;;11.50;;
5349;SDS011;2697;42.144;24.794;2022-12-29T02:53:37;26.43;;;11.23;;
5349;SDS011;2697;42.144;24.794;2022-12-29T02:56:23;21.53;;;10.27;;
5349;SDS011;2697;42.144;24.794;2022-12-29T02:58:48;20.40;;;10.10;;
5349;SDS011;2697;42.144;24.794;2022-12-29T03:15:20;29.67;;;11.13;;
5349;SDS011;2697;42.144;24.794;2022-12-29T03:18:13;39.30;;;10.60;;
5349;SDS011;2697;42.144;24.794;2022-12-29T03:20:54;34.63;;;9.97;;
5349;SDS011;2697;42.144;24.794;2022-12-29T03:23:27;34.30;;;12.00;;
5349;SDS011;2697;42.144;24.794;2022-12-29T03:25:56;23.70;;;12.13;;
5349;SDS011;2697;42.144;24.794;2022-12-29T03:28:30;32.13;;;12.10;;
5349;SDS011;2697;42.144;24.794;2022-12-29T03:31:00;40.10;;;13.33;;
5349;SDS011;2697;42.144;24.794;2022-12-29T03:33:28;34.73;;;14.43;;
5349;SDS011;2697;42.144;24.794;2022-12-29T03:35:59;41.33;;;14.50;;
5349;SDS011;2697;42.144;24.794;2022-12-29T03:38:33;42.97;;;14.47;;
5349;SDS011;2697;42.144;24.794;2022-12-29T03:41:06;34.17;;;15.50;;
5349;SDS011;2697;42.144;24.794;2022-12-29T03:43:35;29.67;;;14.77;;
5349;SDS011;2697;42.144;24.794;2022-12-29T03:46:01;51.67;;;15.67;;
5349;SDS011;2697;42.144;24.794;2022-12-29T03:48:26;35.87;;;15.83;;
5349;SDS011;2697;42.144;24.794;2022-12-29T03:50:51;39.50;;;16.57;;
5349;SDS011;2697;42.144;24.794;2022-12-29T03:53:17;32.30;;;15.87;;
5349;SDS011;2697;42.144;24.794;2022-12-29T03:55:43;38.90;;;17.70;;
5349;SDS011;2697;42.144;24.794;2022-12-29T03:58:08;35.40;;;17.80;;
5349;SDS011;2697;42.144;24.794;2022-12-29T04:00:33;37.03;;;17.17;;
5349;SDS011;2697;42.144;24.794;2022-12-29T04:02:59;43.20;;;15.70;;
5349;SDS011;2697;42.144;24.794;2022-12-29T04:05:24;40.17;;;18.13;;
5349;SDS011;2697;42.144;24.794;2022-12-29T04:07:50;44.30;;;18.77;;
5349;SDS011;2697;42.144;24.794;2022-12-29T04:10:15;42.73;;;18.20;;
5349;SDS011;2697;42.144;24.794;2022-12-29T04:12:40;45.40;;;19.10;;
5349;SDS011;2697;42.144;24.794;2022-12-29T04:15:07;43.97;;;18.53;;
5349;SDS011;2697;42.144;24.794;2022-12-29T04:17:34;35.97;;;18.00;;
5349;SDS011;2697;42.144;24.794;2022-12-29T04:19:59;35.00;;;17.43;;
5349;SDS011;2697;42.144;24.794;2022-12-29T04:22:43;38.70;;;19.30;;
5349;SDS011;2697;42.144;24.794;2022-12-29T04:25:09;43.67;;;19.67;;
5349;SDS011;2697;42.144;24.794;2022-12-29T04:27:34;40.70;;;18.70;;
5349;SDS011;2697;42.144;24.794;2022-12-29T04:30:00;43.77;;;18.37;;
5349;SDS011;2697;42.144;24.794;2022-12-29T04:32:25;50.07;;;20.40;;
5349;SDS011;2697;42.144;24.794;2022-12-29T04:34:51;44.33;;;18.90;;
5349;SDS011;2697;42.144;24.794;2022-12-29T04:37:16;53.07;;;20.70;;
5349;SDS011;2697;42.144;24.794;2022-12-29T04:39:42;53.00;;;23.17;;
5349;SDS011;2697;42.144;24.794;2022-12-29T04:42:07;48.10;;;20.53;;
5349;SDS011;2697;42.144;24.794;2022-12-29T04:44:33;41.63;;;21.73;;
5349;SDS011;2697;42.144;24.794;2022-12-29T04:46:58;59.97;;;21.97;;
5349;SDS011;2697;42.144;24.794;2022-12-29T04:49:23;53.00;;;22.67;;
5349;SDS011;2697;42.144;24.794;2022-12-29T04:51:49;49.60;;;23.50;;
5349;SDS011;2697;42.144;24.794;2022-12-29T04:54:14;63.07;;;24.60;;
5349;SDS011;2697;42.144;24.794;2022-12-29T04:56:40;55.40;;;23.10;;
5349;SDS011;2697;42.144;24.794;2022-12-29T04:59:05;66.40;;;25.20;;
5349;SDS011;2697;42.144;24.794;2022-12-29T05:01:30;83.03;;;29.67;;
5349;SDS011;2697;42.144;24.794;2022-12-29T05:03:56;63.97;;;27.67;;
5349;SDS011;2697;42.144;24.794;2022-12-29T05:06:21;54.70;;;25.33;;
5349;SDS011;2697;42.144;24.794;2022-12-29T05:08:46;59.27;;;27.90;;
5349;SDS011;2697;42.144;24.794;2022-12-29T05:11:12;71.33;;;26.10;;
5349;SDS011;2697;42.144;24.794;2022-12-29T05:13:37;66.97;;;27.47;;
5349;SDS011;2697;42.144;24.794;2022-12-29T05:16:03;62.40;;;27.80;;
5349;SDS011;2697;42.144;24.794;2022-12-29T05:18:28;66.40;;;27.70;;
5349;SDS011;2697;42.144;24.794;2022-12-29T05:20:54;66.40;;;28.57;;
5349;SDS011;2697;42.144;24.794;2022-12-29T05:23:19;79.47;;;25.83;;
5349;SDS011;2697;42.144;24.794;2022-12-29T05:25:44;60.83;;;24.87;;
5349;SDS011;2697;42.144;24.794;2022-12-29T05:28:10;60.67;;;24.17;;
5349;SDS011;2697;42.144;24.794;2022-12-29T05:30:36;79.43;;;27.53;;
5349;SDS011;2697;42.144;24.794;2022-12-29T05:33:01;67.10;;;27.37;;
5349;SDS011;2697;42.144;24.794;2022-12-29T05:35:27;67.70;;;26.50;;
5349;SDS011;2697;42.144;24.794;2022-12-29T05:37:52;68.87;;;25.80;;
5349;SDS011;2697;42.144;24.794;2022-12-29T05:40:19;61.27;;;25.47;;
5349;SDS011;2697;42.144;24.794;2022-12-29T05:42:44;63.80;;;25.27;;
5349;SDS011;2697;42.144;24.794;2022-12-29T05:45:10;56.10;;;24.27;;
5349;SDS011;2697;42.144;24.794;2022-12-29T05:47:35;75.53;;;27.83;;
5349;SDS011;2697;42.144;24.794;2022-12-29T05:50:01;79.07;;;24.90;;
5349;SDS011;2697;42.144;24.794;2022-12-29T05:52:42;78.93;;;26.90;;
5349;SDS011;2697;42.144;24.794;2022-12-29T05:55:07;62.67;;;26.70;;
5349;SDS011;2697;42.144;24.794;2022-12-29T05:57:33;75.87;;;27.07;;
5349;SDS011;2697;42.144;24.794;2022-12-29T05:59:58;78.43;;;26.33;;
5349;SDS011;2697;42.144;24.794;2022-12-29T06:02:23;93.57;;;28.00;;
5349;SDS011;2697;42.144;24.794;2022-12-29T06:04:49;99.57;;;28.53;;
5349;SDS011;2697;42.144;24.794;2022-12-29T06:07:14;71.03;;;26.57;;
5349;SDS011;2697;42.144;24.794;2022-12-29T06:09:40;62.70;;;30.37;;
5349;SDS011;2697;42.144;24.794;2022-12-29T06:12:05;74.47;;;28.63;;
5349;SDS011;2697;42.144;24.794;2022-12-29T06:14:31;97.93;;;28.40;;
5349;SDS011;2697;42.144;24.794;2022-12-29T06:16:56;62.50;;;25.57;;
5349;SDS011;2697;42.144;24.794;2022-12-29T06:19:21;69.43;;;25.67;;
5349;SDS011;2697;42.144;24.794;2022-12-29T06:21:47;69.80;;;26.77;;
5349;SDS011;2697;42.144;24.794;2022-12-29T06:24:12;76.43;;;27.23;;
5349;SDS011;2697;42.144;24.794;2022-12-29T06:26:38;84.33;;;26.50;;
5349;SDS011;2697;42.144;24.794;2022-12-29T06:29:05;70.83;;;27.30;;
5349;SDS011;2697;42.144;24.794;2022-12-29T06:31:31;76.73;;;26.00;;
5349;SDS011;2697;42.144;24.794;2022-12-29T06:33:57;67.83;;;27.13;;
5349;SDS011;2697;42.144;24.794;2022-12-29T06:36:22;80.47;;;26.13;;
5349;SDS011;2697;42.144;24.794;2022-12-29T06:38:48;86.07;;;27.83;;
5349;SDS011;2697;42.144;24.794;2022-12-29T06:41:13;63.47;;;26.20;;
5349;SDS011;2697;42.144;24.794;2022-12-29T06:43:38;64.53;;;28.27;;
5349;SDS011;2697;42.144;24.794;2022-12-29T06:46:04;63.03;;;27.03;;
5349;SDS011;2697;42.144;24.794;2022-12-29T06:48:30;61.43;;;27.43;;
5349;SDS011;2697;42.144;24.794;2022-12-29T06:50:55;59.53;;;29.00;;
5349;SDS011;2697;42.144;24.794;2022-12-29T06:53:20;78.33;;;29.23;;
5349;SDS011;2697;42.144;24.794;2022-12-29T06:55:46;63.80;;;27.63;;
5349;SDS011;2697;42.144;24.794;2022-12-29T06:58:11;71.47;;;28.10;;
5349;SDS011;2697;42.144;24.794;2022-12-29T07:00:37;79.93;;;27.50;;
5349;SDS011;2697;42.144;24.794;2022-12-29T07:03:02;71.70;;;27.70;;
5349;SDS011;2697;42.144;24.794;2022-12-29T07:05:28;77.53;;;28.43;;
5349;SDS011;2697;42.144;24.794;2022-12-29T07:07:56;80.13;;;29.57;;
5349;SDS011;2697;42.144;24.794;2022-12-29T07:10:21;74.93;;;29.50;;
5349;SDS011;2697;42.144;24.794;2022-12-29T07:12:47;75.00;;;29.67;;
5349;SDS011;2697;42.144;24.794;2022-12-29T07:15:12;78.30;;;30.47;;
5349;SDS011;2697;42.144;24.794;2022-12-29T07:17:38;61.37;;;29.07;;
5349;SDS011;2697;42.144;24.794;2022-12-29T07:20:03;69.80;;;30.70;;
5349;SDS011;2697;42.144;24.794;2022-12-29T07:22:29;69.07;;;28.43;;
5349;SDS011;2697;42.144;24.794;2022-12-29T07:24:54;89.57;;;29.50;;
5349;SDS011;2697;42.144;24.794;2022-12-29T07:27:20;80.47;;;28.60;;
5349;SDS011;2697;42.144;24.794;2022-12-29T07:29:46;82.40;;;30.93;;
5349;SDS011;2697;42.144;24.794;2022-12-29T07:32:11;79.27;;;31.53;;
5349;SDS011;2697;42.144;24.794;2022-12-29T07:34:36;131.73;;;45.30;;
5349;SDS011;2697;42.144;24.794;2022-12-29T07:37:02;116.30;;;46.50;;
5349;SDS011;2697;42.144;24.794;2022-12-29T07:39:27;124.30;;;44.57;;
5349;SDS011;2697;42.144;24.794;2022-12-29T07:41:52;106.53;;;43.60;;
5349;SDS011;2697;42.144;24.794;2022-12-29T07:44:18;112.83;;;47.23;;
5349;SDS011;2697;42.144;24.794;2022-12-29T07:46:43;102.00;;;44.00;;
5349;SDS011;2697;42.144;24.794;2022-12-29T07:49:08;102.77;;;42.73;;
5349;SDS011;2697;42.144;24.794;2022-12-29T07:51:34;104.20;;;42.40;;
5349;SDS011;2697;42.144;24.794;2022-12-29T07:53:59;115.23;;;42.90;;
5349;SDS011;2697;42.144;24.794;2022-12-29T07:56:25;129.00;;;43.43;;
5349;SDS011;2697;42.144;24.794;2022-12-29T07:58:51;113.70;;;38.33;;
5349;SDS011;2697;42.144;24.794;2022-12-29T08:01:17;84.33;;;34.53;;
5349;SDS011;2697;42.144;24.794;2022-12-29T08:03:42;58.90;;;26.23;;
5349;SDS011;2697;42.144;24.794;2022-12-29T08:06:11;61.90;;;28.30;;
5349;SDS011;2697;42.144;24.794;2022-12-29T08:08:36;65.40;;;27.40;;
5349;SDS011;2697;42.144;24.794;2022-12-29T08:11:02;54.03;;;26.73;;
5349;SDS011;2697;42.144;24.794;2022-12-29T08:13:28;58.57;;;26.07;;
5349;SDS011;2697;42.144;24.794;2022-12-29T08:15:53;57.73;;;27.60;;
5349;SDS011;2697;42.144;24.794;2022-12-29T08:18:19;57.37;;;27.43;;
5349;SDS011;2697;42.144;24.794;2022-12-29T08:20:44;55.17;;;23.17;;
5349;SDS011;2697;42.144;24.794;2022-12-29T08:23:10;58.43;;;26.53;;
5349;SDS011;2697;42.144;24.794;2022-12-29T08:25:35;58.23;;;25.30;;
5349;SDS011;2697;42.144;24.794;2022-12-29T08:28:00;58.50;;;25.43;;
5349;SDS011;2697;42.144;24.794;2022-12-29T08:30:26;58.17;;;25.13;;
5349;SDS011;2697;42.144;24.794;2022-12-29T08:32:51;59.67;;;25.33;;
5349;SDS011;2697;42.144;24.794;2022-12-29T08:35:16;48.00;;;24.70;;
5349;SDS011;2697;42.144;24.794;2022-12-29T08:37:42;65.37;;;25.80;;
5349;SDS011;2697;42.144;24.794;2022-12-29T08:40:07;53.93;;;26.20;;
5349;SDS011;2697;42.144;24.794;2022-12-29T08:42:33;64.57;;;25.50;;
5349;SDS011;2697;42.144;24.794;2022-12-29T08:44:59;53.90;;;23.43;;
5349;SDS011;2697;42.144;24.794;2022-12-29T08:47:25;56.40;;;22.53;;
5349;SDS011;2697;42.144;24.794;2022-12-29T08:49:51;58.67;;;22.23;;
5349;SDS011;2697;42.144;24.794;2022-12-29T08:52:17;47.10;;;23.73;;
5349;SDS011;2697;42.144;24.794;2022-12-29T08:54:43;46.80;;;22.13;;
5349;SDS011;2697;42.144;24.794;2022-12-29T08:57:08;43.03;;;21.57;;
5349;SDS011;2697;42.144;24.794;2022-12-29T08:59:33;63.27;;;23.83;;
5349;SDS011;2697;42.144;24.794;2022-12-29T09:02:00;51.43;;;23.67;;
5349;SDS011;2697;42.144;24.794;2022-12-29T09:04:26;44.47;;;20.60;;
5349;SDS011;2697;42.144;24.794;2022-12-29T09:06:52;42.10;;;20.73;;
5349;SDS011;2697;42.144;24.794;2022-12-29T09:09:17;47.13;;;21.63;;
5349;SDS011;2697;42.144;24.794;2022-12-29T09:11:43;38.40;;;19.67;;
5349;SDS011;2697;42.144;24.794;2022-12-29T09:14:08;46.63;;;22.13;;
5349;SDS011;2697;42.144;24.794;2022-12-29T09:16:34;44.13;;;20.50;;
5349;SDS011;2697;42.144;24.794;2022-12-29T09:19:00;54.97;;;22.07;;
5349;SDS011;2697;42.144;24.794;2022-12-29T09:21:26;46.17;;;20.60;;
5349;SDS011;2697;42.144;24.794;2022-12-29T09:23:51;53.33;;;21.87;;
5349;SDS011;2697;42.144;24.794;2022-12-29T09:26:17;42.90;;;22.93;;
5349;SDS011;2697;42.144;24.794;2022-12-29T09:28:42;60.17;;;23.17;;
5349;SDS011;2697;42.144;24.794;2022-12-29T09:31:09;68.53;;;22.83;;
5349;SDS011;2697;42.144;24.794;2022-12-29T09:33:34;45.67;;;22.13;;
5349;SDS011;2697;42.144;24.794;2022-12-29T09:36:00;35.67;;;19.53;;
5349;SDS011;2697;42.144;24.794;2022-12-29T09:38:27;42.60;;;20.93;;
5349;SDS011;2697;42.144;24.794;2022-12-29T09:40:55;39.00;;;18.43;;
5349;SDS011;2697;42.144;24.794;2022-12-29T09:51:32;36.40;;;15.20;;
5349;SDS011;2697;42.144;24.794;2022-12-29T09:54:00;40.77;;;16.27;;
5349;SDS011;2697;42.144;24.794;2022-12-29T09:56:35;30.83;;;14.57;;
5349;SDS011;2697;42.144;24.794;2022-12-29T09:59:02;36.53;;;14.40;;
5349;SDS011;2697;42.144;24.794;2022-12-29T10:04:05;34.90;;;15.13;;
5349;SDS011;2697;42.144;24.794;2022-12-29T10:06:39;42.70;;;16.27;;
5349;SDS011;2697;42.144;24.794;2022-12-29T10:23:27;37.77;;;18.63;;
5349;SDS011;2697;42.144;24.794;2022-12-29T10:25:53;41.20;;;19.00;;
5349;SDS011;2697;42.144;24.794;2022-12-29T10:28:21;50.60;;;22.70;;
5349;SDS011;2697;42.144;24.794;2022-12-29T10:30:58;54.30;;;19.93;;
5349;SDS011;2697;42.144;24.794;2022-12-29T10:33:30;47.67;;;19.87;;
5349;SDS011;2697;42.144;24.794;2022-12-29T10:36:01;40.10;;;18.37;;
5349;SDS011;2697;42.144;24.794;2022-12-29T10:38:42;39.00;;;18.57;;
5349;SDS011;2697;42.144;24.794;2022-12-29T10:41:37;28.83;;;15.67;;
5349;SDS011;2697;42.144;24.794;2022-12-29T10:44:06;34.57;;;17.37;;
5349;SDS011;2697;42.144;24.794;2022-12-29T10:46:36;34.80;;;16.93;;
5349;SDS011;2697;42.144;24.794;2022-12-29T10:49:03;47.73;;;18.53;;
5349;SDS011;2697;42.144;24.794;2022-12-29T10:51:33;33.40;;;17.33;;
5349;SDS011;2697;42.144;24.794;2022-12-29T10:54:05;39.17;;;16.60;;
5349;SDS011;2697;42.144;24.794;2022-12-29T10:56:44;33.83;;;17.37;;
5349;SDS011;2697;42.144;24.794;2022-12-29T11:01:50;33.90;;;16.33;;
5349;SDS011;2697;42.144;24.794;2022-12-29T11:07:28;30.00;;;14.53;;
5349;SDS011;2697;42.144;24.794;2022-12-29T11:09:55;33.67;;;14.97;;
5349;SDS011;2697;42.144;24.794;2022-12-29T11:12:40;34.30;;;17.27;;
5349;SDS011;2697;42.144;24.794;2022-12-29T11:17:42;25.10;;;14.33;;
5349;SDS011;2697;42.144;24.794;2022-12-29T11:20:37;31.97;;;16.10;;
5349;SDS011;2697;42.144;24.794;2022-12-29T11:26:05;28.00;;;14.60;;
5349;SDS011;2697;42.144;24.794;2022-12-29T11:28:31;33.30;;;16.50;;
5349;SDS011;2697;42.144;24.794;2022-12-29T11:31:01;39.50;;;16.23;;
5349;SDS011;2697;42.144;24.794;2022-12-29T11:33:28;26.93;;;14.77;;
5349;SDS011;2697;42.144;24.794;2022-12-29T11:35:58;69.50;;;17.10;;
5349;SDS011;2697;42.144;24.794;2022-12-29T11:38:33;35.30;;;18.33;;
5349;SDS011;2697;42.144;24.794;2022-12-29T11:41:00;34.77;;;16.80;;
5349;SDS011;2697;42.144;24.794;2022-12-29T11:45:55;32.87;;;17.07;;
5349;SDS011;2697;42.144;24.794;2022-12-29T11:48:21;31.67;;;15.80;;
5349;SDS011;2697;42.144;24.794;2022-12-29T11:50:52;37.10;;;16.70;;
5349;SDS011;2697;42.144;24.794;2022-12-29T11:53:24;28.60;;;14.87;;
5349;SDS011;2697;42.144;24.794;2022-12-29T11:55:51;35.20;;;16.87;;
5349;SDS011;2697;42.144;24.794;2022-12-29T11:58:16;32.60;;;16.43;;
5349;SDS011;2697;42.144;24.794;2022-12-29T12:00:42;36.30;;;16.23;;
5349;SDS011;2697;42.144;24.794;2022-12-29T12:03:14;36.50;;;16.93;;
5349;SDS011;2697;42.144;24.794;2022-12-29T12:05:51;39.93;;;15.50;;
5349;SDS011;2697;42.144;24.794;2022-12-29T12:11:04;43.33;;;16.90;;
5349;SDS011;2697;42.144;24.794;2022-12-29T12:16:31;35.60;;;19.13;;
5349;SDS011;2697;42.144;24.794;2022-12-29T12:19:16;37.20;;;17.20;;
5349;SDS011;2697;42.144;24.794;2022-12-29T12:21:52;45.63;;;18.30;;
5349;SDS011;2697;42.144;24.794;2022-12-29T12:24:30;40.80;;;17.93;;
5349;SDS011;2697;42.144;24.794;2022-12-29T12:27:02;43.67;;;20.80;;
5349;SDS011;2697;42.144;24.794;2022-12-29T12:34:38;40.93;;;18.93;;
5349;SDS011;2697;42.144;24.794;2022-12-29T12:45:13;46.53;;;18.17;;
5349;SDS011;2697;42.144;24.794;2022-12-29T12:47:53;33.80;;;17.23;;
5349;SDS011;2697;42.144;24.794;2022-12-29T13:10:36;29.53;;;13.50;;
5349;SDS011;2697;42.144;24.794;2022-12-29T13:15:45;47.10;;;15.93;;
5349;SDS011;2697;42.144;24.794;2022-12-29T13:18:26;34.43;;;14.60;;
5349;SDS011;2697;42.144;24.794;2022-12-29T13:24:10;31.63;;;15.00;;
5349;SDS011;2697;42.144;24.794;2022-12-29T13:29:50;37.03;;;15.77;;
5349;SDS011;2697;42.144;24.794;2022-12-29T13:32:26;26.30;;;14.00;;
5349;SDS011;2697;42.144;24.794;2022-12-29T13:35:16;32.87;;;16.10;;
5349;SDS011;2697;42.144;24.794;2022-12-29T13:38:00;26.53;;;14.37;;
5349;SDS011;2697;42.144;24.794;2022-12-29T13:40:34;34.03;;;14.60;;
5349;SDS011;2697;42.144;24.794;2022-12-29T13:43:04;44.17;;;16.27;;
5349;SDS011;2697;42.144;24.794;2022-12-29T13:45:33;30.07;;;14.63;;
5349;SDS011;2697;42.144;24.794;2022-12-29T13:50:38;36.80;;;15.97;;
5349;SDS011;2697;42.144;24.794;2022-12-29T13:58:33;31.00;;;14.60;;
5349;SDS011;2697;42.144;24.794;2022-12-29T14:01:15;37.87;;;15.10;;
5349;SDS011;2697;42.144;24.794;2022-12-29T14:03:47;31.47;;;15.27;;
5349;SDS011;2697;42.144;24.794;2022-12-29T14:06:22;42.40;;;18.37;;
5349;SDS011;2697;42.144;24.794;2022-12-29T14:08:53;36.53;;;18.43;;
5349;SDS011;2697;42.144;24.794;2022-12-29T14:11:22;36.20;;;17.63;;
5349;SDS011;2697;42.144;24.794;2022-12-29T14:13:54;29.17;;;14.50;;
5349;SDS011;2697;42.144;24.794;2022-12-29T14:16:25;33.43;;;15.50;;
5349;SDS011;2697;42.144;24.794;2022-12-29T14:18:56;35.03;;;18.07;;
5349;SDS011;2697;42.144;24.794;2022-12-29T14:21:38;35.50;;;17.70;;
5349;SDS011;2697;42.144;24.794;2022-12-29T14:26:57;41.63;;;18.00;;
5349;SDS011;2697;42.144;24.794;2022-12-29T14:31:48;33.77;;;17.10;;
5349;SDS011;2697;42.144;24.794;2022-12-29T14:36:40;53.17;;;22.20;;
5349;SDS011;2697;42.144;24.794;2022-12-29T14:42:10;36.50;;;18.23;;
5349;SDS011;2697;42.144;24.794;2022-12-29T14:44:46;60.80;;;18.30;;
5349;SDS011;2697;42.144;24.794;2022-12-29T14:49:49;45.13;;;18.47;;
5349;SDS011;2697;42.144;24.794;2022-12-29T14:52:42;51.77;;;22.63;;
5349;SDS011;2697;42.144;24.794;2022-12-29T14:57:41;46.50;;;21.87;;
5349;SDS011;2697;42.144;24.794;2022-12-29T15:03:02;46.07;;;21.47;;
5349;SDS011;2697;42.144;24.794;2022-12-29T15:05:46;63.23;;;23.50;;
5349;SDS011;2697;42.144;24.794;2022-12-29T15:08:17;54.83;;;21.70;;
5349;SDS011;2697;42.144;24.794;2022-12-29T15:10:48;56.30;;;20.83;;
5349;SDS011;2697;42.144;24.794;2022-12-29T15:13:24;47.33;;;18.77;;
5349;SDS011;2697;42.144;24.794;2022-12-29T15:15:58;38.47;;;20.27;;
5349;SDS011;2697;42.144;24.794;2022-12-29T15:18:25;48.17;;;19.37;;
5349;SDS011;2697;42.144;24.794;2022-12-29T15:21:11;40.77;;;20.40;;
5349;SDS011;2697;42.144;24.794;2022-12-29T15:23:39;51.77;;;21.40;;
5349;SDS011;2697;42.144;24.794;2022-12-29T15:26:09;55.00;;;19.00;;
5349;SDS011;2697;42.144;24.794;2022-12-29T15:28:42;64.77;;;24.03;;
5349;SDS011;2697;42.144;24.794;2022-12-29T15:31:17;70.67;;;22.70;;
5349;SDS011;2697;42.144;24.794;2022-12-29T15:33:52;66.63;;;24.30;;
5349;SDS011;2697;42.144;24.794;2022-12-29T15:36:37;75.33;;;25.00;;
5349;SDS011;2697;42.144;24.794;2022-12-29T15:39:20;62.80;;;24.30;;
5349;SDS011;2697;42.144;24.794;2022-12-29T15:41:56;57.03;;;24.53;;
5349;SDS011;2697;42.144;24.794;2022-12-29T15:44:39;56.17;;;21.30;;
5349;SDS011;2697;42.144;24.794;2022-12-29T15:47:19;69.57;;;21.43;;
5349;SDS011;2697;42.144;24.794;2022-12-29T15:49:53;61.30;;;25.00;;
5349;SDS011;2697;42.144;24.794;2022-12-29T15:52:27;77.43;;;25.47;;
5349;SDS011;2697;42.144;24.794;2022-12-29T15:54:55;65.80;;;27.67;;
5349;SDS011;2697;42.144;24.794;2022-12-29T15:59:46;72.03;;;29.63;;
5349;SDS011;2697;42.144;24.794;2022-12-29T16:02:12;121.43;;;32.07;;
5349;SDS011;2697;42.144;24.794;2022-12-29T16:04:37;87.50;;;30.67;;
5349;SDS011;2697;42.144;24.794;2022-12-29T16:07:05;77.07;;;31.37;;
5349;SDS011;2697;42.144;24.794;2022-12-29T16:09:35;95.33;;;33.50;;
5349;SDS011;2697;42.144;24.794;2022-12-29T16:12:07;112.53;;;42.70;;
5349;SDS011;2697;42.144;24.794;2022-12-29T16:17:16;624.43;;;187.83;;
5349;SDS011;2697;42.144;24.794;2022-12-29T16:19:49;303.87;;;72.63;;
5349;SDS011;2697;42.144;24.794;2022-12-29T16:22:36;230.10;;;54.50;;
5349;SDS011;2697;42.144;24.794;2022-12-29T16:25:28;92.63;;;29.20;;
5349;SDS011;2697;42.144;24.794;2022-12-29T16:27:56;62.53;;;24.13;;
5349;SDS011;2697;42.144;24.794;2022-12-29T16:30:27;66.20;;;24.50;;
5349;SDS011;2697;42.144;24.794;2022-12-29T16:32:55;90.20;;;28.20;;
5349;SDS011;2697;42.144;24.794;2022-12-29T16:35:26;127.40;;;38.30;;
5349;SDS011;2697;42.144;24.794;2022-12-29T16:40:33;148.97;;;41.37;;
5349;SDS011;2697;42.144;24.794;2022-12-29T16:43:03;122.67;;;38.23;;
5349;SDS011;2697;42.144;24.794;2022-12-29T16:48:19;97.33;;;35.87;;
5349;SDS011;2697;42.144;24.794;2022-12-29T16:50:45;105.40;;;35.83;;
5349;SDS011;2697;42.144;24.794;2022-12-29T16:53:32;102.37;;;34.23;;
5349;SDS011;2697;42.144;24.794;2022-12-29T16:56:13;93.57;;;31.83;;
5349;SDS011;2697;42.144;24.794;2022-12-29T16:58:43;81.27;;;28.40;;
5349;SDS011;2697;42.144;24.794;2022-12-29T17:01:12;82.77;;;31.00;;
5349;SDS011;2697;42.144;24.794;2022-12-29T17:03:40;100.93;;;35.37;;
5349;SDS011;2697;42.144;24.794;2022-12-29T17:06:14;93.00;;;36.50;;
5349;SDS011;2697;42.144;24.794;2022-12-29T17:08:41;83.13;;;29.97;;
5349;SDS011;2697;42.144;24.794;2022-12-29T17:11:13;83.47;;;32.00;;
5349;SDS011;2697;42.144;24.794;2022-12-29T17:14:12;78.73;;;32.93;;
5349;SDS011;2697;42.144;24.794;2022-12-29T17:17:00;82.87;;;34.63;;
5349;SDS011;2697;42.144;24.794;2022-12-29T17:19:31;86.43;;;37.30;;
5349;SDS011;2697;42.144;24.794;2022-12-29T17:21:59;89.07;;;40.23;;
5349;SDS011;2697;42.144;24.794;2022-12-29T17:24:25;107.10;;;38.10;;
5349;SDS011;2697;42.144;24.794;2022-12-29T17:26:52;101.50;;;35.93;;
5349;SDS011;2697;42.144;24.794;2022-12-29T17:29:37;97.20;;;35.10;;
5349;SDS011;2697;42.144;24.794;2022-12-29T17:32:05;90.73;;;34.80;;
5349;SDS011;2697;42.144;24.794;2022-12-29T17:34:36;103.43;;;37.13;;
5349;SDS011;2697;42.144;24.794;2022-12-29T17:37:02;103.53;;;38.87;;
5349;SDS011;2697;42.144;24.794;2022-12-29T17:39:35;118.70;;;36.97;;